createdAt,value
2018-12-01T00:01:51.925Z,16.83
2018-12-01T00:07:10.480Z,13.87
2018-12-01T00:12:29.021Z,15.93
2018-12-01T00:17:47.773Z,20.13
2018-12-01T00:23:07.382Z,15.87
2018-12-01T00:28:26.124Z,17.20
2018-12-01T00:33:44.630Z,16.87
2018-12-01T00:39:03.362Z,16.27
2018-12-01T00:44:21.901Z,23.27
2018-12-01T00:49:40.469Z,16.67
2018-12-01T00:54:59.082Z,17.63
2018-12-01T01:00:23.140Z,20.30
2018-12-01T01:05:41.741Z,19.83
2018-12-01T01:11:00.334Z,15.83
2018-12-01T01:16:18.894Z,18.07
2018-12-01T01:21:37.633Z,23.53
2018-12-01T01:26:56.113Z,22.80
2018-12-01T01:32:14.727Z,16.33
2018-12-01T01:37:33.331Z,20.83
2018-12-01T01:42:51.874Z,21.17
2018-12-01T01:48:10.359Z,16.70
2018-12-01T01:53:28.938Z,13.07
2018-12-01T01:58:48.004Z,9.50
2018-12-01T02:04:06.867Z,15.80
2018-12-01T02:09:26.245Z,22.93
2018-12-01T02:14:44.883Z,30.37
2018-12-01T02:20:04.222Z,20.30
2018-12-01T02:25:22.738Z,18.37
2018-12-01T02:30:41.399Z,16.60
2018-12-01T02:36:00.038Z,19.30
2018-12-01T02:41:18.559Z,17.40
2018-12-01T02:46:48.121Z,10.27
2018-12-01T02:52:07.453Z,21.37
2018-12-01T02:57:26.097Z,19.63
2018-12-01T03:02:44.644Z,23.53
2018-12-01T03:08:03.288Z,16.73
2018-12-01T03:13:21.831Z,12.30
2018-12-01T03:18:40.453Z,19.20
2018-12-01T03:23:59.000Z,19.47
2018-12-01T03:29:17.499Z,19.03
2018-12-01T03:34:36.059Z,19.43
2018-12-01T03:39:54.959Z,20.63
2018-12-01T03:45:19.291Z,17.42
2018-12-01T03:50:38.645Z,19.13
2018-12-01T03:55:57.405Z,15.10
2018-12-01T04:01:16.038Z,20.80
2018-12-01T04:06:35.144Z,13.33
2018-12-01T04:11:53.707Z,20.10
2018-12-01T04:17:12.233Z,15.97
2018-12-01T04:22:30.811Z,14.73
2018-12-01T04:27:49.372Z,18.73
2018-12-01T04:33:07.921Z,14.90
2018-12-01T04:38:26.405Z,22.70
2018-12-01T04:43:45.072Z,20.07
2018-12-01T04:49:03.681Z,14.23
2018-12-01T04:54:22.214Z,21.10
2018-12-01T04:59:40.752Z,21.20
2018-12-01T05:04:59.308Z,14.57
2018-12-01T05:10:18.817Z,17.15
2018-12-01T05:15:37.358Z,18.70
2018-12-01T05:20:55.973Z,18.97
2018-12-01T05:26:14.438Z,9.80
2018-12-01T05:31:33.035Z,17.23
2018-12-01T05:36:51.853Z,11.57
2018-12-01T05:42:10.438Z,10.97
2018-12-01T05:47:29.006Z,26.57
2018-12-01T05:52:47.664Z,21.83
2018-12-01T05:58:06.237Z,16.53
2018-12-01T06:03:24.849Z,20.13
2018-12-01T06:08:43.518Z,18.13
2018-12-01T06:14:02.202Z,20.57
2018-12-01T06:19:20.834Z,10.77
2018-12-01T06:24:39.356Z,17.63
2018-12-01T06:29:57.919Z,16.33
2018-12-01T06:35:16.478Z,13.88
2018-12-01T06:40:35.187Z,18.77
2018-12-01T06:45:53.693Z,27.47
2018-12-01T06:51:12.437Z,18.70
2018-12-01T06:56:31.013Z,13.90
2018-12-01T07:01:49.536Z,14.97
2018-12-01T07:07:08.051Z,17.93
2018-12-01T07:12:26.673Z,11.63
2018-12-01T07:17:45.196Z,16.57
2018-12-01T07:23:03.753Z,19.13
2018-12-01T07:28:22.275Z,15.80
2018-12-01T07:33:40.851Z,17.43
2018-12-01T07:38:59.398Z,17.17
2018-12-01T07:44:17.936Z,12.10
2018-12-01T07:49:36.472Z,20.07
2018-12-01T07:54:54.989Z,13.33
2018-12-01T08:00:15.105Z,13.98
2018-12-01T08:05:33.713Z,13.70
2018-12-01T08:10:52.327Z,14.07
2018-12-01T08:16:11.276Z,16.05
2018-12-01T08:26:43.892Z,19.17
2018-12-01T08:32:02.407Z,14.60
2018-12-01T08:37:20.924Z,15.40
2018-12-01T08:42:39.598Z,21.67
2018-12-01T08:47:58.191Z,13.77
2018-12-01T08:53:16.716Z,16.83
2018-12-01T08:58:35.250Z,16.67
2018-12-01T09:03:53.772Z,21.70
2018-12-01T09:09:12.378Z,16.00
2018-12-01T09:14:30.981Z,14.40
2018-12-01T09:19:49.764Z,10.30
2018-12-01T09:25:09.922Z,17.97
2018-12-01T09:30:29.942Z,19.73
2018-12-01T09:35:48.413Z,19.70
2018-12-01T09:41:06.941Z,13.13
2018-12-01T09:46:25.553Z,13.90
2018-12-01T09:51:44.120Z,15.30
2018-12-01T09:57:02.669Z,12.30
2018-12-01T10:02:21.252Z,13.93
2018-12-01T10:07:39.826Z,10.07
2018-12-01T10:12:58.953Z,13.43
2018-12-01T10:18:17.499Z,10.10
2018-12-01T10:23:39.052Z,19.40
2018-12-01T10:28:58.216Z,10.67
2018-12-01T10:34:16.827Z,17.13
2018-12-01T10:39:35.417Z,12.37
2018-12-01T10:44:53.933Z,14.97
2018-12-01T10:50:14.540Z,11.78
2018-12-01T10:55:34.601Z,14.28
2018-12-01T11:00:58.350Z,11.70
2018-12-01T11:06:18.151Z,15.78
2018-12-01T11:11:37.502Z,12.80
2018-12-01T11:16:56.004Z,12.27
2018-12-01T11:22:14.600Z,14.87
2018-12-01T11:27:33.336Z,11.10
2018-12-01T11:32:51.973Z,11.83
2018-12-01T11:38:10.665Z,15.37
2018-12-01T11:43:29.184Z,13.10
2018-12-01T11:48:47.785Z,16.03
2018-12-01T11:54:06.466Z,11.07
2018-12-01T11:59:24.989Z,12.27
2018-12-01T12:04:43.556Z,15.87
2018-12-01T12:10:02.254Z,9.98
2018-12-01T12:15:21.955Z,12.15
2018-12-01T12:20:40.553Z,7.80
2018-12-01T12:25:59.125Z,8.67
2018-12-01T12:31:17.993Z,5.80
2018-12-01T12:36:36.569Z,11.20
2018-12-01T12:41:55.904Z,6.63
2018-12-01T12:47:14.441Z,5.97
2018-12-01T12:52:32.967Z,12.20
2018-12-01T12:57:51.800Z,6.60
2018-12-01T13:03:11.545Z,7.17
2018-12-01T13:08:30.077Z,7.10
2018-12-01T13:13:48.681Z,5.87
2018-12-01T13:19:07.346Z,4.30
2018-12-01T13:24:25.875Z,5.27
2018-12-01T13:29:44.485Z,5.47
2018-12-01T13:35:02.984Z,5.83
2018-12-01T13:40:21.531Z,6.73
2018-12-01T13:45:40.187Z,7.03
2018-12-01T13:50:58.822Z,8.60
2018-12-01T13:56:20.875Z,12.80
2018-12-01T14:01:36.063Z,4.73
2018-12-01T14:06:54.666Z,5.03
2018-12-01T14:12:13.143Z,3.63
2018-12-01T14:17:31.688Z,4.63
2018-12-01T14:22:50.788Z,5.57
2018-12-01T14:28:10.917Z,5.73
2018-12-01T14:33:29.493Z,4.40
2018-12-01T14:38:48.093Z,3.05
2018-12-01T14:44:06.720Z,3.03
2018-12-01T14:49:25.256Z,5.00
2018-12-01T14:54:43.756Z,7.23
2018-12-01T15:00:02.435Z,6.17
2018-12-01T15:05:21.059Z,5.17
2018-12-01T15:10:39.720Z,4.10
2018-12-01T15:15:58.294Z,3.87
2018-12-01T15:21:16.961Z,6.63
2018-12-01T15:26:35.545Z,8.43
2018-12-01T15:31:54.147Z,7.43
2018-12-01T15:37:12.774Z,7.03
2018-12-01T15:42:31.292Z,5.03
2018-12-01T15:47:49.846Z,5.63
2018-12-01T15:53:10.481Z,5.03
2018-12-01T15:58:29.010Z,9.15
2018-12-01T16:03:48.334Z,9.60
2018-12-01T16:09:09.496Z,7.83
2018-12-01T16:14:28.128Z,4.97
2018-12-01T16:19:46.836Z,11.43
2018-12-01T16:25:06.966Z,7.60
2018-12-01T16:30:28.613Z,9.13
2018-12-01T16:35:47.569Z,7.75
2018-12-01T16:41:12.253Z,10.73
2018-12-01T16:46:31.652Z,8.53
2018-12-01T16:51:50.183Z,8.30
2018-12-01T16:57:08.716Z,11.37
2018-12-01T17:02:27.837Z,6.90
2018-12-01T17:07:46.797Z,4.43
2018-12-01T17:13:07.062Z,7.13
2018-12-01T17:18:25.681Z,11.13
2018-12-01T17:23:44.200Z,5.37
2018-12-01T17:29:02.789Z,7.87
2018-12-01T17:34:22.642Z,17.07
2018-12-01T17:39:41.416Z,9.47
2018-12-01T17:45:00.008Z,8.00
2018-12-01T17:50:18.829Z,7.87
2018-12-01T17:55:37.503Z,4.23
2018-12-01T18:00:56.052Z,5.47
2018-12-01T18:06:15.731Z,9.33
2018-12-01T18:11:34.245Z,6.13
2018-12-01T18:16:52.840Z,10.83
2018-12-01T18:22:11.429Z,9.43
2018-12-01T18:27:31.050Z,4.83
2018-12-01T18:32:49.963Z,12.57
2018-12-01T18:38:09.779Z,8.47
2018-12-01T18:43:28.923Z,4.43
2018-12-01T18:48:47.740Z,6.53
2018-12-01T18:54:06.603Z,7.23
2018-12-01T18:59:25.125Z,7.58
2018-12-01T19:04:43.757Z,8.57
2018-12-01T19:10:03.004Z,8.03
2018-12-01T19:15:21.761Z,9.40
2018-12-01T19:20:40.484Z,6.43
2018-12-01T19:25:59.158Z,5.70
2018-12-01T19:31:18.173Z,10.97
2018-12-01T19:36:37.828Z,6.50
2018-12-01T19:41:56.455Z,6.93
2018-12-01T19:47:15.014Z,11.95
2018-12-01T19:52:33.639Z,10.67
2018-12-01T19:57:52.765Z,14.27
2018-12-01T20:03:14.373Z,7.27
2018-12-01T20:08:32.982Z,8.13
2018-12-01T20:13:52.184Z,6.17
2018-12-01T20:19:10.828Z,6.77
2018-12-01T20:24:29.541Z,13.47
2018-12-01T20:29:48.397Z,8.63
2018-12-01T20:35:07.893Z,14.33
2018-12-01T20:40:27.093Z,8.40
2018-12-01T20:45:46.226Z,11.87
2018-12-01T20:51:05.130Z,7.67
2018-12-01T20:56:25.635Z,7.00
2018-12-01T21:01:44.990Z,8.50
2018-12-01T21:07:04.233Z,12.07
2018-12-01T21:12:23.372Z,5.07
2018-12-01T21:17:43.339Z,5.93
2018-12-01T21:23:02.373Z,7.27
2018-12-01T21:28:20.996Z,5.17
2018-12-01T21:33:39.587Z,9.33
2018-12-01T21:38:58.247Z,6.78
2018-12-01T21:44:17.406Z,4.50
2018-12-01T21:49:36.931Z,10.30
2018-12-01T21:54:55.611Z,6.13
2018-12-01T22:00:20.559Z,8.73
2018-12-01T22:05:48.698Z,4.33
2018-12-01T22:11:08.952Z,7.93
2018-12-01T22:16:26.922Z,7.40
2018-12-01T22:21:45.636Z,5.60
2018-12-01T22:27:05.052Z,4.40
2018-12-01T22:32:23.826Z,5.83
2018-12-01T22:37:42.581Z,3.77
2018-12-01T22:43:05.219Z,2.77
2018-12-01T22:48:25.415Z,5.80
2018-12-01T22:53:44.729Z,7.87
2018-12-01T22:59:03.458Z,3.13
2018-12-01T23:04:23.292Z,9.90
2018-12-01T23:09:41.992Z,2.43
2018-12-01T23:15:00.510Z,4.33
2018-12-01T23:20:20.974Z,4.50
2018-12-01T23:25:39.727Z,4.87
2018-12-01T23:30:58.292Z,2.70
2018-12-01T23:36:17.567Z,7.13
2018-12-01T23:41:36.643Z,7.60
2018-12-01T23:46:55.551Z,1.90
2018-12-01T23:52:14.138Z,4.00
2018-12-01T23:57:33.530Z,2.90
